AirNav   Air Wisconsin Up To $57,000 Bonus
 
 1702 users online  

WA93 Eliza Island Airport
Bellingham, Washington, USA

GOING TO BELLINGHAM?


FAA INFORMATION EFFECTIVE 04 NOVEMBER 2021

Location

FAA Identifier: WA93
Lat/Long: 48-39-10.6000N 122-35-09.3200W
48-39.176667N 122-35.155333W
48.6529444,-122.5859222
(estimated)
Elevation: 8 ft. / 2 m (estimated)
Variation: 21E (1985)
From city: 7 miles SW of BELLINGHAM, WA
Time zone: UTC -7 (UTC -8 during Standard Time)
Zip code: 98262

Airport Operations

Airport use: Private use. Permission required prior to landing
Activation date: 10/1969
Control tower: no
ARTCC: SEATTLE CENTER
FSS: SEATTLE FLIGHT SERVICE STATION
Attendance: CONTINUOUS
Wind indicator: yes
Segmented circle: no

Airport Communications

WX ASOS at BLI (9 nm N): PHONE 360-671-8688
WX AWOS-3 at BVS (13 nm SE): 121.125 (360-757-7767)
WX AWOS-3 at ORS (13 nm W): 135.425 (360-376-6045)
WX ASOS at NUW (18 nm S): PHONE 360-257-8813
WX ASOS at FHR (19 nm SW): 135.675 (360-378-8491)

Nearby radio navigation aids

VOR radial/distance  VOR name  Freq  Var
HUHr161/17.5WHATCOM VORTAC113.0020E
CVVr354/25.1PENN COVE VOR/DME117.2019E
YVRr122/33.8VANCOUVER VOR/DME115.9017E
YYJr080/35.9VICTORIA VOR/DME113.7017E

 
NDB name  Hdg/Dist  Freq  Var  ID
SKAGIT/BAY VIEW313/12.924016EBVS -... ...- ...
FRIDAY HARBOR047/19.328417EFHR ..-. .... .-.

Airport Services

Airframe service: NONE
Powerplant service: NONE

Runway Information

Runway NW/SE

Dimensions: 1500 x 100 ft. / 457 x 30 m
Surface: turf
RUNWAY NW  RUNWAY SE
Traffic pattern: rightleft
Obstructions: 6 ft. dikenone

Airport Ownership and Management from official FAA records

Ownership: Privately-owned
Owner: ELIZA IS BEACH CLUB INC
P.O. BOX 1033
DUVALL, WA 98019
Phone (360) 224-0517
Manager: DAN LOOKER
P.O. BOX 1033
DUVALL, WA 98019
Phone (360) 319-6999

Additional Remarks

A42 RWY CORNERS MARKED BY WOOD MARKERS & EDGES BY PAINTED TIRES.
FOR CD CTC SEATTLE ARTCC AT 253-351-3694.

Instrument Procedures

There are no published instrument procedures at WA93.

Some nearby airports with instrument procedures:

KBLI - Bellingham International Airport (9 nm N)
KBVS - Skagit Regional Airport (13 nm SE)
KORS - Orcas Island Airport (13 nm W)
KNUW - Whidbey Island Naval Air Station (Ault Field) (18 nm S)
KFHR - Friday Harbor Airport (19 nm SW)
 
Loc | Ops | Rwys | IFR | FBO | Links
Com | Nav | Svcs | Stats | Notes
Area around WA93 (Eliza Island Airport)
 
Road maps at: MapQuest Bing Google
 
Aerial photo
WARNING: Photo may not be current or correct
Aerial photo of WA93 (Eliza Island Airport)
Photo by Tom Eades
As seen circa 2008
from the left seat of a Cessna 172 flying at 3,000 ft

Do you have a better or more recent aerial photo of Eliza Island Airport that you would like to share? If so, please send us your photo.

 
Sectional chart

 
Airport distance calculator
Flying to Eliza Island Airport? Find the distance to fly.

From to WA93

Sunrise and sunset
Times for 30-Nov-2021
 Local
(UTC-8)
 Zulu
(UTC)
Morning civil twilight07:0615:06
Sunrise07:4215:42
Sunset16:1700:17
Evening civil twilight16:5300:53

Current date and time
Zulu (UTC)  30-Nov-2021 19:25:26
Local (UTC-8)  30-Nov-2021 11:25:26
 
METAR
KBLI 
9nm N 
301853Z 17014G25KT 10SM -RA FEW009 OVC047 11/09 A3012 RMK AO2 PK WND 17028/1841 SLP207 P0005 T01110089
KORS 
13nm W 
301855Z AUTO 17011G18KT 140V200 10SM OVC044 11/09 A3010 RMK AO2
KBVS 
13nm SE 
301855Z AUTO 13007KT 5SM BR BKN023 OVC050 11/10 A3017 RMK A01 P0002
KNUW 
18nm S 
301856Z 15019KT 7SM FEW012 SCT025 OVC050 11/08 A3017 RMK AO2 RAE44 SLP215 P0000 T01110083 $
CWEZ 
19nm W 
301800Z AUTO 17015KT 10/09 RMK AO1 2PAST HR 0010 PK WND 17018/1753 SLP191 P0012 T01010091 50052
KFHR 
20nm SW 
301853Z AUTO 14007KT 10SM FEW019 OVC044 09/08 A3014 RMK AO2 RAE16 SLP206 P0001 T00940078 TSNO
TAF
KBLI 
9nm N 
301720Z 3018/0118 17014G20KT 2SM -RA BR FEW009 BKN018 OVC050 TEMPO 3018/3020 1SM RA BKN009 FM302100 18008G15KT 5SM -RA BR OVC014 FM010300 15014G22KT 6SM -RA BR OVC016
KNUW 
18nm S 
3015/0115 16010KT 9999 VCSH SCT005 BKN015 BKN060 OVC140 640609 641503 QNH3010INS TEMPO 3015/3019 16006KT 9999 -RA SCT020 BKN040 BKN120 FM301900 16018G36KT 9999 -RA BR FEW007 SCT020 OVC040 641503 550909 QNH3009INS TEMPO 3019/0100 16015G25KT 4800 RA BR SCT010 BKN015 OVC030 FM010300 16016G26KT 8000 -RA BR SCT012 BKN018 OVC035 641503 550909 QNH3007INS FM011400 160012KT 9000 BR SCT012 BKN018 OVC035 641503 550909 QNH3009INS T14/3023Z T11/0112Z COR 1635 FS30004
NOTAMs
Click for the latest NOTAMs
NOTAMs are issued by the DoD/FAA and will open in a separate window not controlled by AirNav.

 

 
 

Would you like to see your business listed on this page?

 If your business provides an interesting product or service to pilots, flight crews, aircraft, or users of the Eliza Island Airport, you should consider listing it here.  To start the listing process, click on the button below
 
Add a business
 

Other Pages about Eliza Island Airport

Update a link
 
Copyright © AirNav, LLC. All rights reserved. Privacy Policy  Contact